sensor_id;sensor_type;location;lat;lon;timestamp;pressure;altitude;pressure_sealevel;temperature;humidity
68179;BME280;69812;42.632;23.440;2023-05-07T00:00:00;95317.28;;;6.03;87.13
68179;BME280;69812;42.632;23.440;2023-05-07T00:02:29;95326.94;;;6.11;86.80
68179;BME280;69812;42.632;23.440;2023-05-07T00:04:55;95320.81;;;6.01;86.69
68179;BME280;69812;42.632;23.440;2023-05-07T00:07:21;95341.97;;;5.88;87.36
68179;BME280;69812;42.632;23.440;2023-05-07T00:09:46;95327.50;;;5.89;87.63
68179;BME280;69812;42.632;23.440;2023-05-07T00:12:12;95332.09;;;5.84;87.57
68179;BME280;69812;42.632;23.440;2023-05-07T00:14:37;95314.97;;;5.73;87.48
68179;BME280;69812;42.632;23.440;2023-05-07T00:17:03;95330.94;;;5.62;86.91
68179;BME280;69812;42.632;23.440;2023-05-07T00:19:28;95333.22;;;5.52;87.34
68179;BME280;69812;42.632;23.440;2023-05-07T00:21:53;95345.81;;;5.41;88.38
68179;BME280;69812;42.632;23.440;2023-05-07T00:24:41;95350.91;;;5.41;88.38
68179;BME280;69812;42.632;23.440;2023-05-07T00:27:06;95342.38;;;5.42;88.15
68179;BME280;69812;42.632;23.440;2023-05-07T00:29:31;95340.66;;;5.43;87.90
68179;BME280;69812;42.632;23.440;2023-05-07T00:31:57;95337.91;;;5.46;88.67
68179;BME280;69812;42.632;23.440;2023-05-07T00:34:22;95359.66;;;5.37;89.22
68179;BME280;69812;42.632;23.440;2023-05-07T00:37:02;95351.06;;;5.52;88.93
68179;BME280;69812;42.632;23.440;2023-05-07T00:39:30;95339.50;;;5.34;89.18
68179;BME280;69812;42.632;23.440;2023-05-07T00:41:57;95352.75;;;5.39;89.60
68179;BME280;69812;42.632;23.440;2023-05-07T00:44:22;95344.75;;;5.31;89.52
68179;BME280;69812;42.632;23.440;2023-05-07T00:46:48;95339.38;;;5.35;89.40
68179;BME280;69812;42.632;23.440;2023-05-07T00:49:15;95344.59;;;5.34;88.66
68179;BME280;69812;42.632;23.440;2023-05-07T00:51:46;95364.31;;;5.30;88.83
68179;BME280;69812;42.632;23.440;2023-05-07T00:54:13;95346.34;;;5.19;88.47
68179;BME280;69812;42.632;23.440;2023-05-07T00:56:44;95352.94;;;5.36;88.65
68179;BME280;69812;42.632;23.440;2023-05-07T00:59:10;95359.47;;;5.40;88.75
68179;BME280;69812;42.632;23.440;2023-05-07T01:01:36;95347.31;;;5.31;88.51
68179;BME280;69812;42.632;23.440;2023-05-07T01:04:02;95345.88;;;5.27;88.23
68179;BME280;69812;42.632;23.440;2023-05-07T01:06:31;95350.78;;;5.30;88.29
68179;BME280;69812;42.632;23.440;2023-05-07T01:08:59;95337.28;;;5.15;88.11
68179;BME280;69812;42.632;23.440;2023-05-07T01:11:28;95354.06;;;5.32;88.02
68179;BME280;69812;42.632;23.440;2023-05-07T01:13:58;95363.81;;;5.11;87.31
68179;BME280;69812;42.632;23.440;2023-05-07T01:16:24;95351.91;;;5.11;87.54
68179;BME280;69812;42.632;23.440;2023-05-07T01:19:04;95340.19;;;5.09;87.42
68179;BME280;69812;42.632;23.440;2023-05-07T01:21:33;95352.50;;;5.29;87.18
68179;BME280;69812;42.632;23.440;2023-05-07T01:24:01;95349.63;;;5.21;87.51
68179;BME280;69812;42.632;23.440;2023-05-07T01:26:27;95341.91;;;5.23;87.66
68179;BME280;69812;42.632;23.440;2023-05-07T01:28:52;95346.09;;;5.09;87.75
68179;BME280;69812;42.632;23.440;2023-05-07T01:31:21;95345.28;;;5.09;87.31
68179;BME280;69812;42.632;23.440;2023-05-07T01:33:48;95331.84;;;5.07;87.36
68179;BME280;69812;42.632;23.440;2023-05-07T01:36:14;95321.06;;;5.03;87.49
68179;BME280;69812;42.632;23.440;2023-05-07T01:38:55;95328.13;;;5.12;87.67
68179;BME280;69812;42.632;23.440;2023-05-07T01:41:23;95335.66;;;5.14;88.07
68179;BME280;69812;42.632;23.440;2023-05-07T01:43:49;95332.84;;;5.04;88.27
68179;BME280;69812;42.632;23.440;2023-05-07T01:46:21;95324.06;;;4.96;88.15
68179;BME280;69812;42.632;23.440;2023-05-07T01:48:47;95351.44;;;5.19;88.38
68179;BME280;69812;42.632;23.440;2023-05-07T01:51:12;95346.44;;;5.18;88.29
68179;BME280;69812;42.632;23.440;2023-05-07T01:53:39;95332.81;;;5.19;88.59
68179;BME280;69812;42.632;23.440;2023-05-07T01:56:06;95344.81;;;5.17;88.55
68179;BME280;69812;42.632;23.440;2023-05-07T01:58:40;95334.81;;;5.13;89.07
68179;BME280;69812;42.632;23.440;2023-05-07T02:01:07;95326.16;;;5.03;89.20
68179;BME280;69812;42.632;23.440;2023-05-07T02:03:55;95332.22;;;5.01;88.93
68179;BME280;69812;42.632;23.440;2023-05-07T02:06:43;95331.06;;;4.92;88.70
68179;BME280;69812;42.632;23.440;2023-05-07T02:09:09;95329.59;;;4.88;88.58
68179;BME280;69812;42.632;23.440;2023-05-07T02:11:35;95312.19;;;4.82;88.80
68179;BME280;69812;42.632;23.440;2023-05-07T02:14:00;95310.81;;;4.90;88.58
68179;BME280;69812;42.632;23.440;2023-05-07T02:16:25;95315.91;;;4.90;88.61
68179;BME280;69812;42.632;23.440;2023-05-07T02:19:06;95310.75;;;4.78;88.62
68179;BME280;69812;42.632;23.440;2023-05-07T02:21:34;95297.84;;;4.81;88.25
68179;BME280;69812;42.632;23.440;2023-05-07T02:24:01;95307.69;;;5.00;88.22
68179;BME280;69812;42.632;23.440;2023-05-07T02:26:27;95295.28;;;4.95;88.35
68179;BME280;69812;42.632;23.440;2023-05-07T02:28:52;95291.56;;;4.86;88.90
68179;BME280;69812;42.632;23.440;2023-05-07T02:31:43;95294.41;;;4.82;88.32
68179;BME280;69812;42.632;23.440;2023-05-07T02:34:09;95309.59;;;4.69;88.05
68179;BME280;69812;42.632;23.440;2023-05-07T02:36:34;95299.31;;;4.70;88.63
68179;BME280;69812;42.632;23.440;2023-05-07T02:39:00;95302.91;;;4.81;88.53
68179;BME280;69812;42.632;23.440;2023-05-07T02:41:26;95299.31;;;4.70;88.36
68179;BME280;69812;42.632;23.440;2023-05-07T02:43:53;95310.50;;;4.39;88.27
68179;BME280;69812;42.632;23.440;2023-05-07T02:46:18;95308.06;;;4.52;89.12
68179;BME280;69812;42.632;23.440;2023-05-07T02:49:05;95307.50;;;4.61;88.47
68179;BME280;69812;42.632;23.440;2023-05-07T02:51:33;95310.41;;;4.69;88.41
68179;BME280;69812;42.632;23.440;2023-05-07T02:54:00;95303.94;;;4.64;88.33
68179;BME280;69812;42.632;23.440;2023-05-07T02:56:26;95308.41;;;4.60;88.42
68179;BME280;69812;42.632;23.440;2023-05-07T02:58:52;95307.97;;;4.53;88.59
68179;BME280;69812;42.632;23.440;2023-05-07T03:01:17;95313.50;;;4.60;88.13
68179;BME280;69812;42.632;23.440;2023-05-07T03:03:43;95307.41;;;4.63;88.18
68179;BME280;69812;42.632;23.440;2023-05-07T03:06:09;95299.06;;;4.61;88.59
68179;BME280;69812;42.632;23.440;2023-05-07T03:08:34;95308.94;;;4.65;88.83
68179;BME280;69812;42.632;23.440;2023-05-07T03:11:00;95306.69;;;4.75;88.78
68179;BME280;69812;42.632;23.440;2023-05-07T03:13:31;95305.03;;;4.74;88.53
68179;BME280;69812;42.632;23.440;2023-05-07T03:15:58;95319.00;;;4.81;88.48
68179;BME280;69812;42.632;23.440;2023-05-07T03:18:24;95326.38;;;4.86;88.36
68179;BME280;69812;42.632;23.440;2023-05-07T03:20:49;95303.47;;;4.86;88.18
68179;BME280;69812;42.632;23.440;2023-05-07T03:23:15;95308.09;;;4.79;87.88
68179;BME280;69812;42.632;23.440;2023-05-07T03:25:58;95325.25;;;4.90;88.41
68179;BME280;69812;42.632;23.440;2023-05-07T03:28:28;95328.34;;;4.95;88.45
68179;BME280;69812;42.632;23.440;2023-05-07T03:30:54;95314.53;;;4.99;88.79
68179;BME280;69812;42.632;23.440;2023-05-07T03:33:19;95321.06;;;5.30;89.04
68179;BME280;69812;42.632;23.440;2023-05-07T03:35:45;95322.72;;;5.44;89.21
68179;BME280;69812;42.632;23.440;2023-05-07T03:38:13;95327.97;;;5.55;89.56
68179;BME280;69812;42.632;23.440;2023-05-07T03:40:41;95324.88;;;5.50;89.70
68179;BME280;69812;42.632;23.440;2023-05-07T03:43:06;95333.19;;;5.67;89.97
68179;BME280;69812;42.632;23.440;2023-05-07T03:45:53;95320.88;;;5.73;89.80
68179;BME280;69812;42.632;23.440;2023-05-07T03:48:18;95315.78;;;5.86;89.92
68179;BME280;69812;42.632;23.440;2023-05-07T03:50:46;95317.69;;;6.10;90.17
68179;BME280;69812;42.632;23.440;2023-05-07T03:53:12;95336.75;;;6.43;90.84
68179;BME280;69812;42.632;23.440;2023-05-07T03:55:40;95345.19;;;7.43;91.03
68179;BME280;69812;42.632;23.440;2023-05-07T03:58:10;95342.25;;;8.42;91.42
68179;BME280;69812;42.632;23.440;2023-05-07T04:00:35;95338.56;;;9.35;89.19
68179;BME280;69812;42.632;23.440;2023-05-07T04:03:16;95334.72;;;10.15;83.84
68179;BME280;69812;42.632;23.440;2023-05-07T04:05:42;95338.16;;;11.07;82.44
68179;BME280;69812;42.632;23.440;2023-05-07T04:08:07;95347.34;;;11.99;79.08
68179;BME280;69812;42.632;23.440;2023-05-07T04:10:33;95341.75;;;12.70;73.40
68179;BME280;69812;42.632;23.440;2023-05-07T04:12:58;95347.22;;;13.68;69.13
68179;BME280;69812;42.632;23.440;2023-05-07T04:15:24;95352.56;;;14.29;64.20
68179;BME280;69812;42.632;23.440;2023-05-07T09:30:18;95260.22;;;20.23;35.07
68179;BME280;69812;42.632;23.440;2023-05-07T09:32:43;95258.13;;;19.90;36.74
68179;BME280;69812;42.632;23.440;2023-05-07T09:35:16;95247.31;;;20.15;35.62
68179;BME280;69812;42.632;23.440;2023-05-07T09:37:50;95251.97;;;20.55;36.50
68179;BME280;69812;42.632;23.440;2023-05-07T09:40:23;95252.66;;;20.35;34.56
68179;BME280;69812;42.632;23.440;2023-05-07T09:42:49;95238.94;;;20.55;37.16
68179;BME280;69812;42.632;23.440;2023-05-07T09:45:35;95250.03;;;20.63;35.86
68179;BME280;69812;42.632;23.440;2023-05-07T09:48:05;95250.31;;;20.82;35.59
68179;BME280;69812;42.632;23.440;2023-05-07T09:50:36;95245.31;;;20.80;34.17
68179;BME280;69812;42.632;23.440;2023-05-07T09:53:04;95241.94;;;20.86;34.55
68179;BME280;69812;42.632;23.440;2023-05-07T09:55:33;95246.94;;;20.95;34.58
68179;BME280;69812;42.632;23.440;2023-05-07T09:57:59;95232.16;;;21.02;33.25
68179;BME280;69812;42.632;23.440;2023-05-07T10:00:27;95246.66;;;21.24;31.41
68179;BME280;69812;42.632;23.440;2023-05-07T10:02:54;95242.97;;;21.80;31.67
68179;BME280;69812;42.632;23.440;2023-05-07T10:05:22;95228.50;;;21.71;33.87
68179;BME280;69812;42.632;23.440;2023-05-07T10:07:50;95233.94;;;21.69;31.13
68179;BME280;69812;42.632;23.440;2023-05-07T10:10:17;95221.84;;;21.48;33.18
68179;BME280;69812;42.632;23.440;2023-05-07T10:12:42;95216.28;;;21.10;32.04
68179;BME280;69812;42.632;23.440;2023-05-07T10:15:10;95220.03;;;21.42;31.79
68179;BME280;69812;42.632;23.440;2023-05-07T10:17:37;95217.84;;;21.59;31.37
68179;BME280;69812;42.632;23.440;2023-05-07T10:20:06;95216.56;;;21.28;30.44
68179;BME280;69812;42.632;23.440;2023-05-07T10:22:41;95212.91;;;21.16;29.99
68179;BME280;69812;42.632;23.440;2023-05-07T10:25:31;95203.03;;;21.05;33.35
68179;BME280;69812;42.632;23.440;2023-05-07T10:28:06;95208.88;;;21.13;31.03
68179;BME280;69812;42.632;23.440;2023-05-07T10:31:04;95216.34;;;21.23;30.80
68179;BME280;69812;42.632;23.440;2023-05-07T10:33:34;95202.91;;;21.33;32.03
68179;BME280;69812;42.632;23.440;2023-05-07T10:36:01;95202.25;;;21.11;30.78
68179;BME280;69812;42.632;23.440;2023-05-07T10:38:28;95182.19;;;21.18;30.57
68179;BME280;69812;42.632;23.440;2023-05-07T10:41:14;95182.16;;;20.98;30.46
68179;BME280;69812;42.632;23.440;2023-05-07T10:43:43;95193.41;;;21.05;30.15
68179;BME280;69812;42.632;23.440;2023-05-07T10:46:16;95183.19;;;21.04;29.92
68179;BME280;69812;42.632;23.440;2023-05-07T10:51:34;95182.69;;;20.74;29.75
68179;BME280;69812;42.632;23.440;2023-05-07T10:54:19;95190.47;;;20.60;29.29
68179;BME280;69812;42.632;23.440;2023-05-07T10:57:35;95190.00;;;20.98;30.20
68179;BME280;69812;42.632;23.440;2023-05-07T11:00:04;95177.50;;;20.80;31.41
68179;BME280;69812;42.632;23.440;2023-05-07T11:05:24;95184.75;;;20.91;31.68
68179;BME280;69812;42.632;23.440;2023-05-07T11:07:57;95179.88;;;20.82;31.61
68179;BME280;69812;42.632;23.440;2023-05-07T11:10:23;95189.34;;;20.89;33.05
68179;BME280;69812;42.632;23.440;2023-05-07T11:12:54;95178.94;;;20.96;31.57
68179;BME280;69812;42.632;23.440;2023-05-07T11:15:40;95184.16;;;21.03;32.13
68179;BME280;69812;42.632;23.440;2023-05-07T11:18:07;95187.59;;;21.10;31.40
68179;BME280;69812;42.632;23.440;2023-05-07T11:20:54;95174.97;;;21.13;31.48
68179;BME280;69812;42.632;23.440;2023-05-07T11:26:09;95163.31;;;21.09;32.10
68179;BME280;69812;42.632;23.440;2023-05-07T11:28:42;95163.16;;;21.38;33.05
68179;BME280;69812;42.632;23.440;2023-05-07T11:31:09;95164.59;;;21.47;31.43
68179;BME280;69812;42.632;23.440;2023-05-07T11:33:35;95163.00;;;21.46;31.88
68179;BME280;69812;42.632;23.440;2023-05-07T11:36:03;95151.34;;;21.48;32.08
68179;BME280;69812;42.632;23.440;2023-05-07T11:38:29;95168.03;;;21.67;31.48
68179;BME280;69812;42.632;23.440;2023-05-07T11:40:56;95157.56;;;21.81;32.66
68179;BME280;69812;42.632;23.440;2023-05-07T11:43:22;95165.59;;;21.66;32.29
68179;BME280;69812;42.632;23.440;2023-05-07T11:45:48;95159.19;;;21.55;32.52
68179;BME280;69812;42.632;23.440;2023-05-07T11:48:14;95167.00;;;21.42;32.37
68179;BME280;69812;42.632;23.440;2023-05-07T11:50:54;95155.38;;;21.64;31.51
68179;BME280;69812;42.632;23.440;2023-05-07T11:53:20;95156.16;;;21.71;33.19
68179;BME280;69812;42.632;23.440;2023-05-07T11:55:46;95147.13;;;21.81;31.29
68179;BME280;69812;42.632;23.440;2023-05-07T11:58:12;95137.44;;;21.94;31.41
68179;BME280;69812;42.632;23.440;2023-05-07T12:01:03;95153.81;;;22.48;30.27
68179;BME280;69812;42.632;23.440;2023-05-07T12:03:31;95148.00;;;22.46;31.12
68179;BME280;69812;42.632;23.440;2023-05-07T12:05:57;95156.16;;;22.70;33.10
68179;BME280;69812;42.632;23.440;2023-05-07T12:08:22;95144.97;;;22.49;31.28
68179;BME280;69812;42.632;23.440;2023-05-07T12:11:02;95139.00;;;22.81;31.26
68179;BME280;69812;42.632;23.440;2023-05-07T12:13:28;95147.28;;;23.16;30.33
68179;BME280;69812;42.632;23.440;2023-05-07T12:15:55;95130.56;;;23.17;28.96
68179;BME280;69812;42.632;23.440;2023-05-07T12:18:21;95136.91;;;22.96;30.43
68179;BME280;69812;42.632;23.440;2023-05-07T12:20:50;95137.06;;;22.63;30.50
68179;BME280;69812;42.632;23.440;2023-05-07T12:23:16;95135.16;;;22.45;29.59
68179;BME280;69812;42.632;23.440;2023-05-07T12:25:43;95135.34;;;22.43;30.75
68179;BME280;69812;42.632;23.440;2023-05-07T12:28:16;95120.88;;;22.41;31.48
68179;BME280;69812;42.632;23.440;2023-05-07T12:30:48;95119.44;;;22.51;31.68
68179;BME280;69812;42.632;23.440;2023-05-07T12:33:23;95109.91;;;22.64;28.86
68179;BME280;69812;42.632;23.440;2023-05-07T12:35:49;95111.72;;;22.63;29.10
68179;BME280;69812;42.632;23.440;2023-05-07T12:41:00;95109.53;;;22.60;29.34
68179;BME280;69812;42.632;23.440;2023-05-07T12:43:27;95107.09;;;22.65;30.29
68179;BME280;69812;42.632;23.440;2023-05-07T12:45:57;95092.09;;;22.79;31.30
68179;BME280;69812;42.632;23.440;2023-05-07T12:48:23;95100.97;;;22.78;30.20
68179;BME280;69812;42.632;23.440;2023-05-07T12:50:50;95094.75;;;23.11;30.29
68179;BME280;69812;42.632;23.440;2023-05-07T12:53:15;95090.03;;;22.94;28.94
68179;BME280;69812;42.632;23.440;2023-05-07T12:55:52;95089.69;;;23.16;28.95
68179;BME280;69812;42.632;23.440;2023-05-07T12:58:36;95070.16;;;23.19;31.53
68179;BME280;69812;42.632;23.440;2023-05-07T13:01:06;95068.44;;;23.31;28.20
68179;BME280;69812;42.632;23.440;2023-05-07T13:03:33;95071.28;;;22.97;28.21
68179;BME280;69812;42.632;23.440;2023-05-07T13:06:06;95079.56;;;22.94;28.65
68179;BME280;69812;42.632;23.440;2023-05-07T13:08:36;95081.13;;;23.02;29.16
68179;BME280;69812;42.632;23.440;2023-05-07T13:11:07;95077.16;;;22.93;30.64
68179;BME280;69812;42.632;23.440;2023-05-07T13:13:36;95070.41;;;23.10;28.76
68179;BME280;69812;42.632;23.440;2023-05-07T13:16:02;95067.03;;;22.96;28.11
68179;BME280;69812;42.632;23.440;2023-05-07T13:18:38;95064.97;;;23.37;28.63
68179;BME280;69812;42.632;23.440;2023-05-07T13:21:22;95069.88;;;22.95;27.98
68179;BME280;69812;42.632;23.440;2023-05-07T13:23:47;95049.75;;;22.95;28.46
68179;BME280;69812;42.632;23.440;2023-05-07T13:26:13;95051.91;;;22.73;29.39
68179;BME280;69812;42.632;23.440;2023-05-07T13:28:38;95059.13;;;22.78;28.49
68179;BME280;69812;42.632;23.440;2023-05-07T13:31:09;95055.78;;;22.64;28.69
68179;BME280;69812;42.632;23.440;2023-05-07T13:33:38;95047.34;;;22.62;28.92
68179;BME280;69812;42.632;23.440;2023-05-07T13:36:03;95046.59;;;22.87;29.92
68179;BME280;69812;42.632;23.440;2023-05-07T13:38:31;95052.94;;;22.97;29.02
68179;BME280;69812;42.632;23.440;2023-05-07T13:40:57;95045.44;;;22.76;30.97
68179;BME280;69812;42.632;23.440;2023-05-07T13:43:23;95042.63;;;22.77;28.32
68179;BME280;69812;42.632;23.440;2023-05-07T13:45:48;95043.53;;;22.90;28.44
68179;BME280;69812;42.632;23.440;2023-05-07T13:48:18;95057.44;;;22.90;29.76
68179;BME280;69812;42.632;23.440;2023-05-07T13:50:43;95044.03;;;23.12;29.27
68179;BME280;69812;42.632;23.440;2023-05-07T13:53:09;95048.91;;;23.27;27.28
68179;BME280;69812;42.632;23.440;2023-05-07T13:55:34;95035.88;;;23.20;28.09
68179;BME280;69812;42.632;23.440;2023-05-07T13:58:06;95057.00;;;22.93;26.79
68179;BME280;69812;42.632;23.440;2023-05-07T14:00:31;95064.44;;;22.65;26.81
68179;BME280;69812;42.632;23.440;2023-05-07T14:02:57;95074.34;;;22.88;27.63
68179;BME280;69812;42.632;23.440;2023-05-07T14:05:23;95058.91;;;22.80;27.59
68179;BME280;69812;42.632;23.440;2023-05-07T14:08:08;95055.47;;;22.86;26.96
68179;BME280;69812;42.632;23.440;2023-05-07T14:10:33;95054.19;;;22.95;27.62
68179;BME280;69812;42.632;23.440;2023-05-07T14:13:00;95043.78;;;23.13;26.82
68179;BME280;69812;42.632;23.440;2023-05-07T14:15:27;95050.34;;;22.97;26.35
68179;BME280;69812;42.632;23.440;2023-05-07T14:17:53;95050.75;;;23.01;27.15
68179;BME280;69812;42.632;23.440;2023-05-07T14:20:20;95061.97;;;23.08;26.75
68179;BME280;69812;42.632;23.440;2023-05-07T14:22:45;95049.31;;;22.98;27.43
68179;BME280;69812;42.632;23.440;2023-05-07T14:25:11;95060.19;;;23.02;28.41
68179;BME280;69812;42.632;23.440;2023-05-07T14:27:36;95047.97;;;22.89;27.42
68179;BME280;69812;42.632;23.440;2023-05-07T14:30:02;95052.25;;;22.84;27.18
68179;BME280;69812;42.632;23.440;2023-05-07T14:32:27;95056.56;;;22.71;27.67
68179;BME280;69812;42.632;23.440;2023-05-07T14:34:53;95049.41;;;22.85;27.99
68179;BME280;69812;42.632;23.440;2023-05-07T14:37:18;95047.81;;;22.84;26.30
68179;BME280;69812;42.632;23.440;2023-05-07T14:39:46;95045.41;;;22.83;26.90
68179;BME280;69812;42.632;23.440;2023-05-07T14:42:11;95042.41;;;22.79;26.43
68179;BME280;69812;42.632;23.440;2023-05-07T14:44:37;95038.72;;;22.55;28.92
68179;BME280;69812;42.632;23.440;2023-05-07T14:47:05;95038.69;;;22.62;28.12
68179;BME280;69812;42.632;23.440;2023-05-07T14:49:31;95036.63;;;22.70;28.74
68179;BME280;69812;42.632;23.440;2023-05-07T14:52:14;95035.66;;;22.65;28.75
68179;BME280;69812;42.632;23.440;2023-05-07T14:54:39;95034.53;;;22.54;27.43
68179;BME280;69812;42.632;23.440;2023-05-07T14:57:09;95024.97;;;22.34;27.23
68179;BME280;69812;42.632;23.440;2023-05-07T14:59:35;95034.84;;;22.32;30.70
68179;BME280;69812;42.632;23.440;2023-05-07T15:02:01;95031.63;;;22.30;28.92
68179;BME280;69812;42.632;23.440;2023-05-07T15:04:26;95036.38;;;22.40;28.71
68179;BME280;69812;42.632;23.440;2023-05-07T15:06:52;95037.13;;;22.54;28.22
68179;BME280;69812;42.632;23.440;2023-05-07T15:09:19;95029.13;;;22.49;29.86
68179;BME280;69812;42.632;23.440;2023-05-07T15:11:44;95038.53;;;22.56;30.28
68179;BME280;69812;42.632;23.440;2023-05-07T15:14:10;95040.34;;;22.56;30.04
68179;BME280;69812;42.632;23.440;2023-05-07T15:16:53;95036.81;;;22.75;28.63
68179;BME280;69812;42.632;23.440;2023-05-07T15:19:18;95031.94;;;22.79;29.48
68179;BME280;69812;42.632;23.440;2023-05-07T15:21:44;95034.84;;;22.96;30.06
68179;BME280;69812;42.632;23.440;2023-05-07T15:24:09;95029.53;;;23.34;28.71
68179;BME280;69812;42.632;23.440;2023-05-07T15:26:37;95027.16;;;23.70;28.54
68179;BME280;69812;42.632;23.440;2023-05-07T15:29:02;95015.41;;;23.97;28.58
68179;BME280;69812;42.632;23.440;2023-05-07T15:31:38;95015.25;;;24.29;27.04
68179;BME280;69812;42.632;23.440;2023-05-07T15:34:07;95019.03;;;24.64;27.32
68179;BME280;69812;42.632;23.440;2023-05-07T15:36:32;95020.03;;;24.93;25.48
68179;BME280;69812;42.632;23.440;2023-05-07T15:38:58;95023.69;;;25.04;25.33
68179;BME280;69812;42.632;23.440;2023-05-07T15:41:24;95018.22;;;25.05;26.90
68179;BME280;69812;42.632;23.440;2023-05-07T15:43:55;95011.94;;;24.94;25.40
